createdAt,value
2022-08-01T00:00:09.364Z,39.70
2022-08-01T00:02:37.230Z,39.70
2022-08-01T00:05:06.852Z,39.70
2022-08-01T00:07:33.869Z,39.80
2022-08-01T00:10:00.556Z,39.70
2022-08-01T00:12:27.365Z,39.60
2022-08-01T00:14:54.037Z,39.50
2022-08-01T00:17:20.955Z,39.30
2022-08-01T00:19:47.877Z,39.20
2022-08-01T00:22:14.549Z,39.00
2022-08-01T00:24:41.247Z,39.00
2022-08-01T00:27:07.947Z,38.90
2022-08-01T00:30:09.666Z,38.90
2022-08-01T00:32:21.345Z,38.90
2022-08-01T00:34:48.064Z,38.90
2022-08-01T00:37:16.289Z,39.10
2022-08-01T00:39:43.121Z,39.20
2022-08-01T00:42:10.824Z,39.30
2022-08-01T00:44:37.526Z,39.30
2022-08-01T00:47:04.728Z,39.50
2022-08-01T00:49:31.571Z,39.60
2022-08-01T00:51:59.398Z,39.70
2022-08-01T00:54:26.947Z,39.80
2022-08-01T00:56:54.601Z,39.90
2022-08-01T00:59:22.489Z,40.10
2022-08-01T01:01:50.214Z,40.10
2022-08-01T01:04:17.568Z,40.10
2022-08-01T01:06:56.462Z,40.30
2022-08-01T01:09:23.252Z,40.40
2022-08-01T01:11:58.603Z,40.60
2022-08-01T01:14:37.258Z,40.70
2022-08-01T01:17:06.922Z,40.60
2022-08-01T01:19:35.107Z,40.80
2022-08-01T01:22:14.881Z,41.00
2022-08-01T01:24:50.497Z,40.70
2022-08-01T01:27:25.864Z,40.50
2022-08-01T01:29:58.768Z,40.70
2022-08-01T01:32:34.325Z,40.60
2022-08-01T01:35:02.941Z,40.60
2022-08-01T01:37:30.933Z,40.80
2022-08-01T01:39:57.970Z,41.00
2022-08-01T01:42:26.638Z,41.20
2022-08-01T01:44:54.178Z,41.70
2022-08-01T01:47:21.259Z,41.60
2022-08-01T01:49:49.054Z,41.80
2022-08-01T01:52:17.444Z,42.00
2022-08-01T01:54:50.378Z,42.20
2022-08-01T01:57:18.146Z,42.30
2022-08-01T01:59:45.578Z,42.50
2022-08-01T02:02:13.047Z,42.60
2022-08-01T02:04:41.891Z,42.90
2022-08-01T02:07:09.915Z,42.60
2022-08-01T02:09:38.168Z,42.30
2022-08-01T02:12:07.874Z,42.30
2022-08-01T02:14:36.606Z,42.00
2022-08-01T02:17:05.174Z,41.50
2022-08-01T02:19:33.324Z,41.10
2022-08-01T02:22:12.177Z,41.20
2022-08-01T02:24:43.158Z,40.80
2022-08-01T02:27:11.129Z,40.60
2022-08-01T02:29:40.773Z,40.10
2022-08-01T02:32:08.898Z,39.80
2022-08-01T02:34:36.766Z,39.30
2022-08-01T02:37:04.078Z,39.20
2022-08-01T02:39:32.581Z,38.80
2022-08-01T02:42:01.808Z,38.80
2022-08-01T02:44:31.085Z,38.70
2022-08-01T02:47:01.388Z,37.90
2022-08-01T02:49:28.939Z,37.20
2022-08-01T02:51:56.606Z,36.80
2022-08-01T02:54:23.787Z,36.50
2022-08-01T02:56:51.232Z,36.00
2022-08-01T02:59:22.174Z,35.80
2022-08-01T03:01:50.024Z,35.40
2022-08-01T03:04:18.834Z,35.20
2022-08-01T03:06:46.060Z,35.10
2022-08-01T03:09:13.055Z,34.80
2022-08-01T03:11:42.605Z,34.40
2022-08-01T03:14:10.781Z,34.50
2022-08-01T03:16:38.909Z,34.50
2022-08-01T03:19:05.946Z,34.40
2022-08-01T03:21:32.853Z,34.30
2022-08-01T03:24:00.622Z,34.20
2022-08-01T03:26:28.326Z,34.30
2022-08-01T03:28:57.441Z,34.20
2022-08-01T03:31:24.902Z,34.00
2022-08-01T03:33:51.637Z,33.80
2022-08-01T03:36:20.714Z,33.90
2022-08-01T03:38:48.463Z,33.80
2022-08-01T03:41:22.108Z,33.80
2022-08-01T03:44:06.330Z,33.40
2022-08-01T03:46:36.385Z,33.10
2022-08-01T03:49:07.023Z,32.80
2022-08-01T03:51:34.145Z,32.40
2022-08-01T03:54:02.106Z,32.30
2022-08-01T03:56:29.060Z,32.20
2022-08-01T03:58:55.911Z,31.80
2022-08-01T04:01:22.922Z,31.70
2022-08-01T04:03:49.741Z,31.50
2022-08-01T04:06:16.606Z,31.30
2022-08-01T04:08:43.299Z,31.30
2022-08-01T04:11:10.709Z,31.30
2022-08-01T04:13:38.480Z,31.10
2022-08-01T04:16:05.756Z,31.00
2022-08-01T04:18:33.073Z,30.50
2022-08-01T04:20:59.885Z,30.50
2022-08-01T04:23:27.828Z,30.40
2022-08-01T04:25:55.504Z,30.30
2022-08-01T04:28:22.937Z,30.20
2022-08-01T04:30:51.141Z,29.90
2022-08-01T04:33:18.236Z,29.70
2022-08-01T04:36:01.990Z,29.50
2022-08-01T04:38:31.945Z,29.20
2022-08-01T04:40:58.926Z,29.10
2022-08-01T04:43:30.699Z,28.80
2022-08-01T04:45:58.994Z,28.60
2022-08-01T04:48:25.877Z,28.50
2022-08-01T04:50:52.870Z,28.30
2022-08-01T04:53:22.692Z,28.10
2022-08-01T04:55:49.577Z,28.10
2022-08-01T04:58:18.545Z,27.80
2022-08-01T05:00:46.079Z,27.80
2022-08-01T05:03:12.759Z,27.60
2022-08-01T05:05:39.865Z,27.50
2022-08-01T05:08:07.379Z,27.30
2022-08-01T05:10:34.600Z,27.10
2022-08-01T05:13:01.377Z,26.90
2022-08-01T05:15:28.131Z,26.80
2022-08-01T05:17:55.434Z,26.60
2022-08-01T05:20:22.306Z,26.40
2022-08-01T05:22:49.346Z,26.00
2022-08-01T05:25:20.004Z,25.60
2022-08-01T05:27:49.106Z,25.30
2022-08-01T05:30:17.817Z,24.90
2022-08-01T05:32:44.518Z,24.40
2022-08-01T05:35:11.625Z,24.10
2022-08-01T05:37:38.333Z,23.20
2022-08-01T05:40:05.664Z,22.80
2022-08-01T05:42:32.510Z,22.40
2022-08-01T05:44:59.192Z,22.10
2022-08-01T05:47:25.881Z,21.80
2022-08-01T05:49:52.548Z,21.40
2022-08-01T05:52:19.261Z,21.40
2022-08-01T05:54:45.946Z,21.10
2022-08-01T05:57:12.645Z,21.10
2022-08-01T05:59:39.337Z,20.90
2022-08-01T06:02:06.353Z,20.90
2022-08-01T06:04:33.288Z,20.60
2022-08-01T06:06:59.996Z,20.50
2022-08-01T06:09:26.709Z,20.60
2022-08-01T06:11:53.509Z,20.80
2022-08-01T06:14:20.168Z,20.30
2022-08-01T06:16:46.932Z,20.20
2022-08-01T06:19:13.605Z,20.20
2022-08-01T06:21:40.282Z,20.30
2022-08-01T06:24:07.283Z,20.30
2022-08-01T06:26:33.995Z,20.60
2022-08-01T06:29:00.687Z,20.60
2022-08-01T06:31:31.725Z,20.20
2022-08-01T06:34:00.202Z,20.20
2022-08-01T06:36:26.916Z,19.70
2022-08-01T06:38:53.714Z,19.30
2022-08-01T06:41:20.421Z,19.60
2022-08-01T06:43:47.114Z,19.50
2022-08-01T06:46:13.844Z,19.50
2022-08-01T06:48:40.836Z,19.90
2022-08-01T06:51:10.588Z,19.20
2022-08-01T06:53:37.856Z,19.40
2022-08-01T06:56:05.172Z,19.10
2022-08-01T06:58:32.019Z,18.80
2022-08-01T07:00:58.927Z,18.80
2022-08-01T07:03:26.480Z,19.40
2022-08-01T07:05:54.588Z,19.10
2022-08-01T07:08:21.896Z,19.10
2022-08-01T07:10:48.658Z,19.10
2022-08-01T07:13:18.859Z,19.70
2022-08-01T07:15:45.548Z,19.50
2022-08-01T07:18:12.239Z,19.80
2022-08-01T07:20:51.092Z,19.40
2022-08-01T07:23:22.542Z,19.30
2022-08-01T07:25:52.610Z,19.60
2022-08-01T07:28:19.813Z,19.40
2022-08-01T07:30:46.781Z,19.40
2022-08-01T07:33:13.565Z,19.60
2022-08-01T07:35:41.457Z,19.50
2022-08-01T07:38:12.583Z,19.60
2022-08-01T07:40:39.501Z,19.60
2022-08-01T07:43:06.198Z,19.40
2022-08-01T07:45:32.916Z,19.20
2022-08-01T07:48:03.483Z,19.70
2022-08-01T07:50:35.085Z,19.80
2022-08-01T07:53:01.897Z,19.80
2022-08-01T07:55:28.624Z,19.60
2022-08-01T07:57:55.289Z,19.80
2022-08-01T08:00:22.095Z,19.70
2022-08-01T08:02:48.910Z,19.80
2022-08-01T08:05:15.707Z,19.10
2022-08-01T08:08:05.805Z,19.50
2022-08-01T08:10:32.604Z,19.90
2022-08-01T08:12:59.440Z,20.00
2022-08-01T08:15:26.149Z,19.10
2022-08-01T08:17:55.223Z,20.10
2022-08-01T08:20:30.156Z,19.70
2022-08-01T08:22:59.494Z,20.20
2022-08-01T08:25:26.957Z,19.30
2022-08-01T08:27:53.654Z,19.20
2022-08-01T08:30:20.520Z,19.30
2022-08-01T08:32:48.916Z,19.70
2022-08-01T08:35:23.273Z,19.90
2022-08-01T08:38:02.325Z,19.80
2022-08-01T08:40:30.773Z,19.90
2022-08-01T08:42:57.945Z,19.70
2022-08-01T08:45:30.897Z,20.00
2022-08-01T08:48:12.273Z,20.00
2022-08-01T08:50:39.430Z,20.10
2022-08-01T08:53:06.428Z,20.60
2022-08-01T08:55:33.438Z,20.50
2022-08-01T08:58:20.459Z,20.80
2022-08-01T09:00:47.389Z,20.60
2022-08-01T09:03:15.853Z,20.50
2022-08-01T09:05:42.704Z,20.80
2022-08-01T09:08:09.497Z,21.20
2022-08-01T09:10:36.197Z,21.50
2022-08-01T09:13:13.255Z,20.60
2022-08-01T09:15:41.202Z,21.50
2022-08-01T09:18:07.978Z,23.00
2022-08-01T09:20:37.354Z,24.30
2022-08-01T09:23:04.685Z,23.00
2022-08-01T09:25:36.797Z,22.70
2022-08-01T09:28:13.222Z,20.80
2022-08-01T09:30:40.329Z,22.40
2022-08-01T09:33:18.137Z,22.20
2022-08-01T09:35:55.633Z,21.00
2022-08-01T09:38:23.206Z,21.40
2022-08-01T09:40:58.649Z,21.20
2022-08-01T09:43:29.981Z,21.40
2022-08-01T09:45:58.807Z,20.90
2022-08-01T09:48:28.014Z,21.10
2022-08-01T09:51:04.536Z,22.20
2022-08-01T09:53:52.540Z,23.10
2022-08-01T09:56:21.252Z,23.30
2022-08-01T09:59:00.448Z,23.30
2022-08-01T10:01:38.519Z,24.80
2022-08-01T10:04:16.021Z,24.60
2022-08-01T10:06:45.104Z,24.10
2022-08-01T10:09:13.502Z,25.60
2022-08-01T10:11:41.884Z,24.60
2022-08-01T10:14:08.870Z,24.30
2022-08-01T10:16:37.272Z,23.90
2022-08-01T10:19:07.365Z,23.20
2022-08-01T10:21:47.651Z,23.10
2022-08-01T10:24:25.953Z,24.50
2022-08-01T10:26:53.625Z,22.80
2022-08-01T10:29:46.532Z,24.00
2022-08-01T10:32:10.247Z,25.10
2022-08-01T10:34:38.220Z,22.40
2022-08-01T10:37:08.286Z,22.70
2022-08-01T10:39:36.731Z,23.70
2022-08-01T10:42:06.787Z,24.50
2022-08-01T10:44:37.664Z,22.70
2022-08-01T10:47:10.260Z,22.70
2022-08-01T10:49:40.482Z,21.80
2022-08-01T10:52:07.360Z,24.20
2022-08-01T10:54:39.640Z,23.30
2022-08-01T10:57:19.221Z,21.90
2022-08-01T11:00:01.504Z,23.70
2022-08-01T11:02:31.745Z,21.60
2022-08-01T11:05:01.882Z,21.70
2022-08-01T11:07:43.133Z,22.30
2022-08-01T11:10:15.583Z,23.90
2022-08-01T11:12:44.163Z,21.80
2022-08-01T11:15:11.077Z,21.70
2022-08-01T11:17:42.170Z,20.70
2022-08-01T11:20:09.528Z,22.20
2022-08-01T11:22:55.214Z,24.20
2022-08-01T11:26:03.470Z,23.00
2022-08-01T11:28:32.083Z,21.40
2022-08-01T11:31:10.841Z,23.50
2022-08-01T11:33:46.862Z,23.50
2022-08-01T11:36:14.559Z,23.20
2022-08-01T11:38:42.448Z,24.70
2022-08-01T11:41:21.191Z,24.00
2022-08-01T11:44:05.624Z,25.00
2022-08-01T11:47:08.802Z,25.70
2022-08-01T11:49:42.011Z,24.90
2022-08-01T11:52:17.701Z,27.10
2022-08-01T11:54:54.956Z,24.60
2022-08-01T11:57:23.598Z,21.50
2022-08-01T12:00:04.282Z,23.90
2022-08-01T12:02:34.857Z,22.80
2022-08-01T12:05:02.721Z,22.30
2022-08-01T12:07:32.966Z,24.30
2022-08-01T12:10:02.862Z,25.70
2022-08-01T12:12:30.412Z,25.30
2022-08-01T12:14:59.145Z,23.60
2022-08-01T12:17:57.524Z,22.40
2022-08-01T12:20:31.398Z,22.80
2022-08-01T12:23:00.164Z,23.60
2022-08-01T12:25:27.272Z,24.60
2022-08-01T12:27:56.582Z,26.60
2022-08-01T12:30:24.963Z,24.20
2022-08-01T12:32:52.523Z,23.70
2022-08-01T12:35:21.775Z,23.30
2022-08-01T12:37:52.653Z,23.20
2022-08-01T12:40:21.144Z,23.60
2022-08-01T12:42:49.266Z,24.60
2022-08-01T12:45:18.530Z,25.20
2022-08-01T12:47:46.084Z,24.40
2022-08-01T12:50:16.468Z,24.10
2022-08-01T12:52:43.640Z,25.70
2022-08-01T12:55:21.677Z,24.30
2022-08-01T12:58:03.677Z,25.10
2022-08-01T13:00:30.705Z,26.00
2022-08-01T13:03:06.272Z,23.10
2022-08-01T13:05:49.105Z,22.80
2022-08-01T13:08:16.994Z,24.90
2022-08-01T13:10:44.697Z,22.70
2022-08-01T13:13:12.041Z,24.00
2022-08-01T13:16:03.800Z,24.30
2022-08-01T13:18:31.784Z,24.10
2022-08-01T13:21:52.088Z,23.90
2022-08-01T13:24:23.644Z,26.30
2022-08-01T13:26:51.992Z,24.70
2022-08-01T13:29:19.924Z,24.30
2022-08-01T13:31:46.633Z,25.00
2022-08-01T13:34:15.445Z,24.10
2022-08-01T13:36:48.588Z,25.10
2022-08-01T13:39:34.865Z,27.90
2022-08-01T13:42:01.650Z,25.20
2022-08-01T13:44:28.416Z,23.30
2022-08-01T13:46:55.116Z,24.60
2022-08-01T13:49:22.877Z,26.50
2022-08-01T13:51:51.560Z,28.90
2022-08-01T13:54:18.784Z,27.10
2022-08-01T13:56:45.778Z,28.60
2022-08-01T13:59:12.806Z,26.90
2022-08-01T14:01:39.813Z,25.50
2022-08-01T14:04:06.683Z,25.70
2022-08-01T14:06:33.853Z,24.10
2022-08-01T14:09:01.275Z,24.30
2022-08-01T14:11:30.550Z,26.20
2022-08-01T14:14:04.102Z,26.70
2022-08-01T14:16:31.105Z,27.50
2022-08-01T14:18:57.751Z,26.10
2022-08-01T14:21:24.464Z,25.60
2022-08-01T14:23:51.181Z,25.00
2022-08-01T14:26:17.863Z,23.50
2022-08-01T14:28:44.591Z,23.60
2022-08-01T14:31:11.446Z,24.10
2022-08-01T14:33:38.258Z,24.30
2022-08-01T14:36:20.581Z,24.00
2022-08-01T14:38:51.957Z,24.50
2022-08-01T14:41:19.166Z,23.40
2022-08-01T14:43:45.824Z,25.20
2022-08-01T14:46:13.637Z,23.70
2022-08-01T14:48:40.621Z,23.70
2022-08-01T14:51:08.256Z,23.90
2022-08-01T14:53:37.318Z,23.00
2022-08-01T14:56:07.155Z,23.90
2022-08-01T14:58:34.127Z,26.00
2022-08-01T15:01:01.495Z,25.50
2022-08-01T15:03:28.406Z,25.20
2022-08-01T15:05:55.177Z,23.70
2022-08-01T15:08:21.908Z,24.60
2022-08-01T15:10:48.600Z,26.00
2022-08-01T15:13:15.657Z,24.90
2022-08-01T15:15:42.388Z,26.10
2022-08-01T15:18:09.100Z,26.50
2022-08-01T15:20:35.820Z,24.00
2022-08-01T15:23:02.534Z,22.70
2022-08-01T15:25:41.346Z,22.20
2022-08-01T15:28:09.565Z,22.00
2022-08-01T15:30:36.380Z,22.30
2022-08-01T15:33:03.188Z,22.20
2022-08-01T15:35:29.907Z,23.20
2022-08-01T15:37:56.740Z,25.10
2022-08-01T15:40:23.513Z,23.70
2022-08-01T15:42:50.234Z,25.90
2022-08-01T15:45:44.491Z,24.80
2022-08-01T15:48:06.143Z,23.90
2022-08-01T15:50:32.958Z,23.20
2022-08-01T15:52:59.693Z,24.70
2022-08-01T15:55:26.408Z,24.40
2022-08-01T15:57:53.185Z,25.00
2022-08-01T16:00:20.051Z,25.20
2022-08-01T16:02:47.215Z,23.70
2022-08-01T16:05:13.881Z,22.40
2022-08-01T16:07:56.969Z,23.40
2022-08-01T16:10:28.772Z,22.60
2022-08-01T16:12:55.518Z,23.20
2022-08-01T16:15:22.213Z,22.70
2022-08-01T16:17:48.907Z,22.80
2022-08-01T16:20:16.209Z,23.20
2022-08-01T16:22:42.892Z,23.20
2022-08-01T16:25:13.441Z,22.30
2022-08-01T16:27:40.373Z,21.90
2022-08-01T16:30:07.836Z,21.40
2022-08-01T16:32:43.471Z,20.90
2022-08-01T16:35:15.491Z,21.40
2022-08-01T16:37:42.736Z,21.30
2022-08-01T16:40:09.682Z,21.90
2022-08-01T16:42:36.379Z,22.80
2022-08-01T16:45:08.598Z,22.60
2022-08-01T16:47:35.557Z,22.40
2022-08-01T16:50:02.320Z,22.40
2022-08-01T16:52:29.014Z,20.50
2022-08-01T16:54:58.027Z,20.40
2022-08-01T16:57:25.033Z,20.70
2022-08-01T16:59:51.692Z,20.70
2022-08-01T17:02:18.497Z,20.60
2022-08-01T17:04:45.204Z,20.50
2022-08-01T17:07:12.120Z,21.00
2022-08-01T17:09:43.332Z,21.00
2022-08-01T17:12:11.801Z,20.10
2022-08-01T17:14:39.957Z,20.00
2022-08-01T17:17:07.390Z,20.10
2022-08-01T17:19:34.414Z,20.30
2022-08-01T17:22:01.243Z,20.30
2022-08-01T17:24:27.987Z,20.30
2022-08-01T17:26:54.746Z,20.00
2022-08-01T17:29:21.433Z,20.20
2022-08-01T17:31:48.117Z,20.20
2022-08-01T17:34:15.025Z,20.10
2022-08-01T17:36:41.739Z,20.00
2022-08-01T17:39:09.414Z,19.70
2022-08-01T17:41:36.170Z,20.00
2022-08-01T17:44:02.873Z,20.30
2022-08-01T17:46:30.452Z,20.20
2022-08-01T17:48:57.489Z,20.00
2022-08-01T17:51:24.298Z,19.90
2022-08-01T17:53:55.796Z,20.40
2022-08-01T17:56:25.110Z,20.50
2022-08-01T17:58:52.370Z,19.60
2022-08-01T18:01:19.426Z,19.60
2022-08-01T18:03:46.671Z,19.40
2022-08-01T18:06:14.450Z,19.30
2022-08-01T18:08:42.856Z,19.40
2022-08-01T18:11:09.701Z,19.20
2022-08-01T18:13:36.656Z,19.00
2022-08-01T18:16:08.884Z,19.10
2022-08-01T18:18:35.724Z,18.90
2022-08-01T18:21:02.649Z,18.80
2022-08-01T18:23:29.373Z,18.60
2022-08-01T18:25:56.113Z,18.60
2022-08-01T18:28:33.775Z,18.50
2022-08-01T18:31:03.683Z,18.50
2022-08-01T18:33:30.472Z,18.50
2022-08-01T18:36:01.780Z,18.40
2022-08-01T18:38:35.186Z,18.40
2022-08-01T18:41:05.539Z,18.30
2022-08-01T18:43:32.262Z,18.30
2022-08-01T18:45:59.034Z,18.20
2022-08-01T18:48:25.698Z,18.20
2022-08-01T18:50:53.916Z,18.10
2022-08-01T18:53:22.450Z,18.10
2022-08-01T18:55:49.489Z,18.00
2022-08-01T18:58:16.278Z,17.90
2022-08-01T19:00:43.062Z,17.80
2022-08-01T19:03:10.052Z,17.80
2022-08-01T19:05:38.157Z,17.70
2022-08-01T19:08:07.814Z,17.70
2022-08-01T19:10:36.058Z,17.70
2022-08-01T19:13:03.070Z,17.40
2022-08-01T19:15:29.851Z,17.30
2022-08-01T19:17:56.652Z,17.40
2022-08-01T19:20:23.353Z,17.30
2022-08-01T19:22:50.045Z,17.30
2022-08-01T19:25:16.899Z,17.40
2022-08-01T19:27:46.226Z,17.10
2022-08-01T19:30:13.196Z,17.00
2022-08-01T19:32:41.963Z,17.20
2022-08-01T19:35:11.397Z,17.70
2022-08-01T19:37:44.042Z,17.70
2022-08-01T19:40:10.942Z,17.60
2022-08-01T19:42:54.986Z,17.40
2022-08-01T19:45:22.264Z,17.40
2022-08-01T19:47:55.971Z,17.50
2022-08-01T19:50:24.126Z,17.20
2022-08-01T19:52:51.860Z,16.90
2022-08-01T19:55:18.873Z,17.00
2022-08-01T19:57:59.277Z,16.90
2022-08-01T20:00:34.352Z,17.10
2022-08-01T20:03:01.560Z,16.90
2022-08-01T20:05:28.502Z,16.90
2022-08-01T20:07:55.564Z,16.50
2022-08-01T20:10:22.444Z,16.50
2022-08-01T20:12:49.187Z,16.90
2022-08-01T20:15:16.567Z,17.00
2022-08-01T20:17:43.327Z,16.70
2022-08-01T20:20:10.911Z,16.60
2022-08-01T20:22:38.429Z,16.60
2022-08-01T20:25:06.080Z,16.50
2022-08-01T20:27:32.848Z,16.50
2022-08-01T20:30:00.890Z,16.50
2022-08-01T20:32:29.081Z,16.50
2022-08-01T20:34:58.249Z,16.30
2022-08-01T20:38:01.219Z,16.60
2022-08-01T20:40:12.572Z,16.90
2022-08-01T20:42:40.114Z,16.70
2022-08-01T20:45:07.260Z,16.80
2022-08-01T20:47:33.928Z,16.70
2022-08-01T20:50:52.046Z,16.50
2022-08-01T20:53:06.604Z,16.50
2022-08-01T20:55:36.393Z,16.50
2022-08-01T20:58:03.729Z,16.60
2022-08-01T21:00:31.372Z,16.60
2022-08-01T21:03:08.670Z,16.50
2022-08-01T21:05:41.989Z,16.50
2022-08-01T21:08:42.313Z,16.50
2022-08-01T21:11:11.561Z,16.60
2022-08-01T21:13:40.503Z,16.40
2022-08-01T21:16:23.928Z,16.40
2022-08-01T21:19:16.844Z,15.80
2022-08-01T21:21:42.997Z,15.30
2022-08-01T21:24:19.244Z,15.10
2022-08-01T21:26:46.653Z,15.10
2022-08-01T21:29:14.080Z,15.00
2022-08-01T21:31:41.979Z,15.00
2022-08-01T21:34:08.991Z,15.00
2022-08-01T21:36:35.905Z,15.00
2022-08-01T21:39:04.072Z,15.00
2022-08-01T21:42:03.451Z,15.00
2022-08-01T21:44:23.100Z,15.00
2022-08-01T21:46:58.495Z,14.90
2022-08-01T21:49:25.377Z,14.90
2022-08-01T21:51:59.557Z,15.00
2022-08-01T21:54:51.308Z,15.10
2022-08-01T21:57:36.812Z,15.10
2022-08-01T22:00:20.936Z,15.10
2022-08-01T22:02:59.034Z,15.10
2022-08-01T22:05:42.573Z,15.20
2022-08-01T22:08:16.536Z,15.30
2022-08-01T22:10:43.369Z,15.30
2022-08-01T22:13:11.766Z,15.30
2022-08-01T22:15:44.819Z,15.20
2022-08-01T22:18:12.097Z,15.30
2022-08-01T22:20:39.308Z,15.30
2022-08-01T22:23:06.640Z,15.30
2022-08-01T22:25:33.426Z,15.30
2022-08-01T22:28:07.805Z,15.20
2022-08-01T22:30:40.745Z,15.10
2022-08-01T22:33:15.842Z,15.10
2022-08-01T22:35:47.201Z,15.20
2022-08-01T22:38:14.307Z,15.10
2022-08-01T22:40:45.935Z,15.20
2022-08-01T22:43:20.291Z,15.20
2022-08-01T22:46:05.592Z,15.10
2022-08-01T22:48:36.672Z,15.10
2022-08-01T22:51:06.794Z,15.20
2022-08-01T22:53:36.509Z,15.20
2022-08-01T22:56:05.460Z,15.20
2022-08-01T22:58:33.625Z,15.30
2022-08-01T23:01:01.834Z,15.30
2022-08-01T23:03:35.117Z,15.30
2022-08-01T23:06:01.804Z,15.30
2022-08-01T23:08:28.715Z,15.30
2022-08-01T23:10:55.601Z,15.30
2022-08-01T23:13:22.528Z,15.30
2022-08-01T23:15:52.202Z,15.30
2022-08-01T23:18:20.520Z,15.30
2022-08-01T23:20:47.239Z,15.20
2022-08-01T23:23:16.243Z,15.20
2022-08-01T23:25:43.721Z,15.30
2022-08-01T23:28:11.545Z,15.30
2022-08-01T23:30:38.534Z,15.30
2022-08-01T23:33:05.611Z,15.30
2022-08-01T23:35:38.831Z,15.30
2022-08-01T23:38:06.411Z,15.30
2022-08-01T23:40:33.889Z,15.30
2022-08-01T23:43:01.320Z,15.30
2022-08-01T23:45:28.070Z,15.30
2022-08-01T23:47:54.873Z,15.30
2022-08-01T23:50:22.292Z,15.30
2022-08-01T23:52:50.564Z,15.30
2022-08-01T23:55:19.055Z,15.40
2022-08-01T23:57:46.114Z,15.40
